sensor_id;sensor_type;location;lat;lon;timestamp;temperature;humidity
45849;DHT22;31567;54.600;9.842;2023-05-07T00:03:22;10.00;99.90
45849;DHT22;31567;54.600;9.842;2023-05-07T00:07:02;9.90;99.90
45849;DHT22;31567;54.600;9.842;2023-05-07T00:10:42;10.00;99.90
45849;DHT22;31567;54.600;9.842;2023-05-07T00:14:21;10.00;99.90
45849;DHT22;31567;54.600;9.842;2023-05-07T00:18:01;10.00;99.90
45849;DHT22;31567;54.600;9.842;2023-05-07T00:21:40;9.90;99.90
45849;DHT22;31567;54.600;9.842;2023-05-07T00:25:20;10.00;99.90
45849;DHT22;31567;54.600;9.842;2023-05-07T00:28:59;10.00;99.90
45849;DHT22;31567;54.600;9.842;2023-05-07T00:32:39;10.00;99.90
45849;DHT22;31567;54.600;9.842;2023-05-07T00:36:18;10.00;99.90
45849;DHT22;31567;54.600;9.842;2023-05-07T00:39:58;10.00;99.90
45849;DHT22;31567;54.600;9.842;2023-05-07T00:43:38;10.00;99.90
45849;DHT22;31567;54.600;9.842;2023-05-07T00:47:17;10.00;99.90
45849;DHT22;31567;54.600;9.842;2023-05-07T00:50:57;10.00;99.90
45849;DHT22;31567;54.600;9.842;2023-05-07T00:54:37;10.00;99.90
45849;DHT22;31567;54.600;9.842;2023-05-07T00:58:17;10.00;99.90
45849;DHT22;31567;54.600;9.842;2023-05-07T01:01:57;10.10;99.90
45849;DHT22;31567;54.600;9.842;2023-05-07T01:05:36;10.00;99.90
45849;DHT22;31567;54.600;9.842;2023-05-07T01:09:16;10.00;99.90
45849;DHT22;31567;54.600;9.842;2023-05-07T01:12:57;10.00;99.90
45849;DHT22;31567;54.600;9.842;2023-05-07T01:16:37;10.00;99.90
45849;DHT22;31567;54.600;9.842;2023-05-07T01:20:18;10.00;99.90
45849;DHT22;31567;54.600;9.842;2023-05-07T01:23:58;10.10;99.90
45849;DHT22;31567;54.600;9.842;2023-05-07T01:27:38;10.00;99.90
45849;DHT22;31567;54.600;9.842;2023-05-07T01:31:17;10.00;99.90
45849;DHT22;31567;54.600;9.842;2023-05-07T01:34:58;10.00;99.90
45849;DHT22;31567;54.600;9.842;2023-05-07T01:38:39;10.00;99.90
45849;DHT22;31567;54.600;9.842;2023-05-07T01:42:20;9.90;99.90
45849;DHT22;31567;54.600;9.842;2023-05-07T01:46:01;9.90;99.90
45849;DHT22;31567;54.600;9.842;2023-05-07T01:49:42;9.90;99.90
45849;DHT22;31567;54.600;9.842;2023-05-07T01:53:21;10.00;99.90
45849;DHT22;31567;54.600;9.842;2023-05-07T01:57:01;10.00;99.90
45849;DHT22;31567;54.600;9.842;2023-05-07T02:00:41;10.10;99.90
45849;DHT22;31567;54.600;9.842;2023-05-07T02:04:20;10.00;99.90
45849;DHT22;31567;54.600;9.842;2023-05-07T02:08:00;10.00;99.90
45849;DHT22;31567;54.600;9.842;2023-05-07T02:11:39;10.00;99.90
45849;DHT22;31567;54.600;9.842;2023-05-07T02:15:19;10.00;99.90
45849;DHT22;31567;54.600;9.842;2023-05-07T02:18:58;9.90;99.90
45849;DHT22;31567;54.600;9.842;2023-05-07T02:22:38;10.00;99.90
45849;DHT22;31567;54.600;9.842;2023-05-07T02:26:18;9.90;99.90
45849;DHT22;31567;54.600;9.842;2023-05-07T02:29:57;9.90;99.90
45849;DHT22;31567;54.600;9.842;2023-05-07T02:33:37;10.00;99.90
45849;DHT22;31567;54.600;9.842;2023-05-07T02:37:16;9.90;99.90
45849;DHT22;31567;54.600;9.842;2023-05-07T02:40:56;10.00;99.90
45849;DHT22;31567;54.600;9.842;2023-05-07T02:44:35;10.00;99.90
45849;DHT22;31567;54.600;9.842;2023-05-07T02:48:15;10.00;99.90
45849;DHT22;31567;54.600;9.842;2023-05-07T02:51:54;10.00;99.90
45849;DHT22;31567;54.600;9.842;2023-05-07T02:55:35;10.00;99.90
45849;DHT22;31567;54.600;9.842;2023-05-07T02:59:14;10.00;99.90
45849;DHT22;31567;54.600;9.842;2023-05-07T03:02:54;10.00;99.90
45849;DHT22;31567;54.600;9.842;2023-05-07T03:06:33;10.10;99.90
45849;DHT22;31567;54.600;9.842;2023-05-07T03:10:13;10.10;99.90
45849;DHT22;31567;54.600;9.842;2023-05-07T03:13:53;10.00;99.90
45849;DHT22;31567;54.600;9.842;2023-05-07T03:17:32;10.10;99.90
45849;DHT22;31567;54.600;9.842;2023-05-07T03:21:12;10.10;99.90
45849;DHT22;31567;54.600;9.842;2023-05-07T03:24:51;10.10;99.90
45849;DHT22;31567;54.600;9.842;2023-05-07T03:28:31;10.10;99.90
45849;DHT22;31567;54.600;9.842;2023-05-07T03:32:10;10.10;99.90
45849;DHT22;31567;54.600;9.842;2023-05-07T03:35:50;10.20;99.90
45849;DHT22;31567;54.600;9.842;2023-05-07T03:39:29;10.20;99.90
45849;DHT22;31567;54.600;9.842;2023-05-07T03:43:09;10.20;99.90
45849;DHT22;31567;54.600;9.842;2023-05-07T03:46:49;10.20;99.90
45849;DHT22;31567;54.600;9.842;2023-05-07T03:50:28;10.20;99.90
45849;DHT22;31567;54.600;9.842;2023-05-07T03:54:08;10.20;99.90
45849;DHT22;31567;54.600;9.842;2023-05-07T03:57:47;10.20;99.90
45849;DHT22;31567;54.600;9.842;2023-05-07T04:01:27;10.20;99.90
45849;DHT22;31567;54.600;9.842;2023-05-07T04:05:07;10.20;99.90
45849;DHT22;31567;54.600;9.842;2023-05-07T04:08:46;10.10;99.90
45849;DHT22;31567;54.600;9.842;2023-05-07T04:12:26;10.10;99.90
45849;DHT22;31567;54.600;9.842;2023-05-07T04:16:06;10.20;99.90
45849;DHT22;31567;54.600;9.842;2023-05-07T04:19:45;10.20;99.90
45849;DHT22;31567;54.600;9.842;2023-05-07T04:23:26;10.20;99.90
45849;DHT22;31567;54.600;9.842;2023-05-07T04:27:05;10.20;99.90
45849;DHT22;31567;54.600;9.842;2023-05-07T04:30:45;10.20;99.90
45849;DHT22;31567;54.600;9.842;2023-05-07T04:34:25;10.30;99.90
45849;DHT22;31567;54.600;9.842;2023-05-07T04:38:04;10.30;99.90
45849;DHT22;31567;54.600;9.842;2023-05-07T04:41:44;10.30;99.90
45849;DHT22;31567;54.600;9.842;2023-05-07T04:45:24;10.40;99.90
45849;DHT22;31567;54.600;9.842;2023-05-07T04:49:03;10.40;99.90
45849;DHT22;31567;54.600;9.842;2023-05-07T04:52:43;10.40;99.90
45849;DHT22;31567;54.600;9.842;2023-05-07T04:56:22;10.40;99.90
45849;DHT22;31567;54.600;9.842;2023-05-07T05:00:02;10.50;99.90
45849;DHT22;31567;54.600;9.842;2023-05-07T05:03:43;10.50;99.90
45849;DHT22;31567;54.600;9.842;2023-05-07T05:07:23;10.50;99.90
45849;DHT22;31567;54.600;9.842;2023-05-07T05:11:02;10.60;99.90
45849;DHT22;31567;54.600;9.842;2023-05-07T05:14:42;10.60;99.90
45849;DHT22;31567;54.600;9.842;2023-05-07T05:18:22;10.70;99.90
45849;DHT22;31567;54.600;9.842;2023-05-07T05:22:02;10.70;99.90
45849;DHT22;31567;54.600;9.842;2023-05-07T05:25:43;10.60;99.90
45849;DHT22;31567;54.600;9.842;2023-05-07T05:29:22;10.60;99.90
45849;DHT22;31567;54.600;9.842;2023-05-07T05:33:02;10.60;99.90
45849;DHT22;31567;54.600;9.842;2023-05-07T05:36:41;10.70;99.90
45849;DHT22;31567;54.600;9.842;2023-05-07T05:40:21;10.70;99.90
45849;DHT22;31567;54.600;9.842;2023-05-07T05:44:00;10.70;99.90
45849;DHT22;31567;54.600;9.842;2023-05-07T05:47:41;10.70;99.90
45849;DHT22;31567;54.600;9.842;2023-05-07T05:51:21;10.70;99.90
45849;DHT22;31567;54.600;9.842;2023-05-07T05:55:00;10.80;99.90
45849;DHT22;31567;54.600;9.842;2023-05-07T05:58:40;10.80;99.90
45849;DHT22;31567;54.600;9.842;2023-05-07T06:02:20;10.70;99.90
45849;DHT22;31567;54.600;9.842;2023-05-07T06:05:59;10.80;99.90
45849;DHT22;31567;54.600;9.842;2023-05-07T06:09:42;10.80;99.90
45849;DHT22;31567;54.600;9.842;2023-05-07T06:13:22;10.90;99.90
45849;DHT22;31567;54.600;9.842;2023-05-07T06:17:01;11.00;99.90
45849;DHT22;31567;54.600;9.842;2023-05-07T06:20:41;10.90;99.90
45849;DHT22;31567;54.600;9.842;2023-05-07T06:24:20;10.90;99.90
45849;DHT22;31567;54.600;9.842;2023-05-07T06:28:00;10.90;99.90
45849;DHT22;31567;54.600;9.842;2023-05-07T06:31:39;11.00;99.90
45849;DHT22;31567;54.600;9.842;2023-05-07T06:35:19;11.00;99.90
45849;DHT22;31567;54.600;9.842;2023-05-07T06:38:59;11.00;99.90
45849;DHT22;31567;54.600;9.842;2023-05-07T06:42:38;11.10;99.90
45849;DHT22;31567;54.600;9.842;2023-05-07T06:46:18;11.20;99.90
45849;DHT22;31567;54.600;9.842;2023-05-07T06:49:57;11.30;99.90
45849;DHT22;31567;54.600;9.842;2023-05-07T06:53:37;11.30;99.90
45849;DHT22;31567;54.600;9.842;2023-05-07T06:57:16;11.30;99.90
45849;DHT22;31567;54.600;9.842;2023-05-07T07:00:56;11.30;99.90
45849;DHT22;31567;54.600;9.842;2023-05-07T07:04:35;11.40;99.90
45849;DHT22;31567;54.600;9.842;2023-05-07T07:08:15;11.50;99.90
45849;DHT22;31567;54.600;9.842;2023-05-07T07:11:57;11.50;99.90
45849;DHT22;31567;54.600;9.842;2023-05-07T07:15:36;11.60;99.90
45849;DHT22;31567;54.600;9.842;2023-05-07T07:19:16;11.60;99.90
45849;DHT22;31567;54.600;9.842;2023-05-07T07:22:55;11.70;99.90
45849;DHT22;31567;54.600;9.842;2023-05-07T07:26:35;11.70;99.90
45849;DHT22;31567;54.600;9.842;2023-05-07T07:30:14;11.80;99.90
45849;DHT22;31567;54.600;9.842;2023-05-07T07:33:54;11.80;99.90
45849;DHT22;31567;54.600;9.842;2023-05-07T07:37:34;12.00;99.90
45849;DHT22;31567;54.600;9.842;2023-05-07T07:41:13;11.90;99.90
45849;DHT22;31567;54.600;9.842;2023-05-07T07:44:53;11.90;99.90
45849;DHT22;31567;54.600;9.842;2023-05-07T07:48:33;12.00;99.90
45849;DHT22;31567;54.600;9.842;2023-05-07T07:52:12;12.00;99.90
45849;DHT22;31567;54.600;9.842;2023-05-07T07:55:52;12.10;99.90
45849;DHT22;31567;54.600;9.842;2023-05-07T07:59:31;12.10;99.90
45849;DHT22;31567;54.600;9.842;2023-05-07T08:03:11;12.20;99.90
45849;DHT22;31567;54.600;9.842;2023-05-07T08:06:51;12.30;99.90
45849;DHT22;31567;54.600;9.842;2023-05-07T08:10:30;12.30;99.90
45849;DHT22;31567;54.600;9.842;2023-05-07T08:14:13;12.40;99.90
45849;DHT22;31567;54.600;9.842;2023-05-07T08:17:55;12.40;99.90
45849;DHT22;31567;54.600;9.842;2023-05-07T08:21:39;12.50;99.90
45849;DHT22;31567;54.600;9.842;2023-05-07T08:25:19;12.60;99.90
45849;DHT22;31567;54.600;9.842;2023-05-07T08:28:59;12.70;99.90
45849;DHT22;31567;54.600;9.842;2023-05-07T08:32:38;12.90;99.90
45849;DHT22;31567;54.600;9.842;2023-05-07T08:36:18;13.10;99.90
45849;DHT22;31567;54.600;9.842;2023-05-07T08:39:58;13.20;99.90
45849;DHT22;31567;54.600;9.842;2023-05-07T08:43:39;13.30;99.90
45849;DHT22;31567;54.600;9.842;2023-05-07T08:47:22;13.40;99.90
45849;DHT22;31567;54.600;9.842;2023-05-07T08:51:02;13.50;99.90
45849;DHT22;31567;54.600;9.842;2023-05-07T08:54:42;13.70;99.90
45849;DHT22;31567;54.600;9.842;2023-05-07T08:58:22;13.80;99.90
45849;DHT22;31567;54.600;9.842;2023-05-07T09:02:01;13.90;99.90
45849;DHT22;31567;54.600;9.842;2023-05-07T09:05:41;14.00;99.90
45849;DHT22;31567;54.600;9.842;2023-05-07T09:09:23;14.00;99.90
45849;DHT22;31567;54.600;9.842;2023-05-07T09:13:03;14.10;99.90
45849;DHT22;31567;54.600;9.842;2023-05-07T09:16:43;14.20;99.90
45849;DHT22;31567;54.600;9.842;2023-05-07T09:20:22;14.20;99.90
45849;DHT22;31567;54.600;9.842;2023-05-07T09:24:02;14.20;99.90
45849;DHT22;31567;54.600;9.842;2023-05-07T09:27:42;14.30;99.90
45849;DHT22;31567;54.600;9.842;2023-05-07T09:31:21;14.40;99.90
45849;DHT22;31567;54.600;9.842;2023-05-07T09:35:02;14.50;99.90
45849;DHT22;31567;54.600;9.842;2023-05-07T09:38:42;14.60;99.60
45849;DHT22;31567;54.600;9.842;2023-05-07T09:42:25;14.50;99.80
45849;DHT22;31567;54.600;9.842;2023-05-07T09:46:14;14.60;99.80
45849;DHT22;31567;54.600;9.842;2023-05-07T09:49:56;14.60;99.70
45849;DHT22;31567;54.600;9.842;2023-05-07T09:53:37;14.60;99.80
45849;DHT22;31567;54.600;9.842;2023-05-07T09:57:19;14.70;99.70
45849;DHT22;31567;54.600;9.842;2023-05-07T10:01:00;14.60;99.70
45849;DHT22;31567;54.600;9.842;2023-05-07T10:04:40;14.50;99.50
45849;DHT22;31567;54.600;9.842;2023-05-07T10:08:20;14.40;99.40
45849;DHT22;31567;54.600;9.842;2023-05-07T10:12:00;14.40;99.80
45849;DHT22;31567;54.600;9.842;2023-05-07T10:15:41;14.40;99.80
45849;DHT22;31567;54.600;9.842;2023-05-07T10:19:20;14.40;99.70
45849;DHT22;31567;54.600;9.842;2023-05-07T10:23:03;14.50;99.70
45849;DHT22;31567;54.600;9.842;2023-05-07T10:26:45;14.50;99.80
45849;DHT22;31567;54.600;9.842;2023-05-07T10:34:34;14.80;99.80
45849;DHT22;31567;54.600;9.842;2023-05-07T10:38:15;14.90;99.90
45849;DHT22;31567;54.600;9.842;2023-05-07T10:41:54;15.20;99.50
45849;DHT22;31567;54.600;9.842;2023-05-07T10:45:34;15.30;99.00
45849;DHT22;31567;54.600;9.842;2023-05-07T10:49:14;15.50;98.90
45849;DHT22;31567;54.600;9.842;2023-05-07T10:53:32;15.70;98.60
45849;DHT22;31567;54.600;9.842;2023-05-07T10:57:34;15.80;97.90
45849;DHT22;31567;54.600;9.842;2023-05-07T11:01:55;15.90;97.80
45849;DHT22;31567;54.600;9.842;2023-05-07T11:05:35;15.90;97.40
45849;DHT22;31567;54.600;9.842;2023-05-07T11:09:15;15.90;97.50
45849;DHT22;31567;54.600;9.842;2023-05-07T11:12:55;16.00;97.30
45849;DHT22;31567;54.600;9.842;2023-05-07T11:16:36;15.90;97.10
45849;DHT22;31567;54.600;9.842;2023-05-07T11:20:17;15.90;97.10
45849;DHT22;31567;54.600;9.842;2023-05-07T11:23:57;16.00;97.10
45849;DHT22;31567;54.600;9.842;2023-05-07T11:27:37;16.00;97.10
45849;DHT22;31567;54.600;9.842;2023-05-07T11:31:21;16.20;96.90
45849;DHT22;31567;54.600;9.842;2023-05-07T11:35:02;16.30;96.50
45849;DHT22;31567;54.600;9.842;2023-05-07T11:38:41;16.50;96.50
45849;DHT22;31567;54.600;9.842;2023-05-07T11:46:11;16.50;95.70
45849;DHT22;31567;54.600;9.842;2023-05-07T11:49:53;16.60;95.70
45849;DHT22;31567;54.600;9.842;2023-05-07T11:53:37;16.50;95.70
45849;DHT22;31567;54.600;9.842;2023-05-07T11:57:17;16.40;95.50
45849;DHT22;31567;54.600;9.842;2023-05-07T12:00:57;16.50;95.80
45849;DHT22;31567;54.600;9.842;2023-05-07T12:04:38;16.60;95.50
45849;DHT22;31567;54.600;9.842;2023-05-07T12:08:18;16.80;95.60
45849;DHT22;31567;54.600;9.842;2023-05-07T12:12:03;16.80;95.20
45849;DHT22;31567;54.600;9.842;2023-05-07T12:15:44;17.00;94.90
45849;DHT22;31567;54.600;9.842;2023-05-07T12:19:23;17.10;94.60
45849;DHT22;31567;54.600;9.842;2023-05-07T12:23:03;17.20;94.40
45849;DHT22;31567;54.600;9.842;2023-05-07T12:26:43;17.20;94.20
45849;DHT22;31567;54.600;9.842;2023-05-07T12:30:23;17.30;94.00
45849;DHT22;31567;54.600;9.842;2023-05-07T12:34:02;17.10;93.80
45849;DHT22;31567;54.600;9.842;2023-05-07T12:37:42;17.00;93.80
45849;DHT22;31567;54.600;9.842;2023-05-07T12:41:22;16.90;93.80
45849;DHT22;31567;54.600;9.842;2023-05-07T12:45:11;17.00;94.00
45849;DHT22;31567;54.600;9.842;2023-05-07T12:48:52;17.10;93.90
45849;DHT22;31567;54.600;9.842;2023-05-07T12:52:33;17.00;93.40
45849;DHT22;31567;54.600;9.842;2023-05-07T12:56:15;17.00;93.30
45849;DHT22;31567;54.600;9.842;2023-05-07T12:59:57;17.10;93.40
45849;DHT22;31567;54.600;9.842;2023-05-07T13:03:38;17.10;93.40
45849;DHT22;31567;54.600;9.842;2023-05-07T13:07:17;17.20;93.30
45849;DHT22;31567;54.600;9.842;2023-05-07T13:11:01;17.00;93.10
45849;DHT22;31567;54.600;9.842;2023-05-07T13:14:42;17.10;93.30
45849;DHT22;31567;54.600;9.842;2023-05-07T13:18:23;17.10;93.20
45849;DHT22;31567;54.600;9.842;2023-05-07T13:22:03;17.10;93.00
45849;DHT22;31567;54.600;9.842;2023-05-07T13:25:43;17.20;93.00
45849;DHT22;31567;54.600;9.842;2023-05-07T13:29:22;17.20;92.60
45849;DHT22;31567;54.600;9.842;2023-05-07T13:33:09;17.20;92.60
45849;DHT22;31567;54.600;9.842;2023-05-07T13:36:48;17.20;92.40
45849;DHT22;31567;54.600;9.842;2023-05-07T13:40:28;17.10;92.50
45849;DHT22;31567;54.600;9.842;2023-05-07T13:44:08;17.20;92.70
45849;DHT22;31567;54.600;9.842;2023-05-07T13:47:47;17.30;92.60
45849;DHT22;31567;54.600;9.842;2023-05-07T13:51:28;17.40;92.30
45849;DHT22;31567;54.600;9.842;2023-05-07T13:55:09;17.30;92.00
45849;DHT22;31567;54.600;9.842;2023-05-07T13:58:48;17.40;92.20
45849;DHT22;31567;54.600;9.842;2023-05-07T14:02:28;17.40;92.20
45849;DHT22;31567;54.600;9.842;2023-05-07T14:06:07;17.40;92.40
45849;DHT22;31567;54.600;9.842;2023-05-07T14:09:47;17.70;92.50
45849;DHT22;31567;54.600;9.842;2023-05-07T14:13:26;17.70;92.10
45849;DHT22;31567;54.600;9.842;2023-05-07T14:17:06;17.90;91.90
45849;DHT22;31567;54.600;9.842;2023-05-07T14:20:47;18.10;91.60
45849;DHT22;31567;54.600;9.842;2023-05-07T14:24:28;18.30;91.40
45849;DHT22;31567;54.600;9.842;2023-05-07T14:28:07;18.30;91.00
45849;DHT22;31567;54.600;9.842;2023-05-07T14:31:47;18.40;90.80
45849;DHT22;31567;54.600;9.842;2023-05-07T14:35:26;18.40;90.40
45849;DHT22;31567;54.600;9.842;2023-05-07T14:39:06;18.40;90.20
45849;DHT22;31567;54.600;9.842;2023-05-07T14:42:46;18.40;90.40
45849;DHT22;31567;54.600;9.842;2023-05-07T14:46:25;18.40;90.30
45849;DHT22;31567;54.600;9.842;2023-05-07T14:50:05;18.50;90.10
45849;DHT22;31567;54.600;9.842;2023-05-07T14:53:45;18.40;89.60
45849;DHT22;31567;54.600;9.842;2023-05-07T14:57:24;18.50;89.60
45849;DHT22;31567;54.600;9.842;2023-05-07T15:01:04;18.50;89.50
45849;DHT22;31567;54.600;9.842;2023-05-07T15:04:43;18.50;88.80
45849;DHT22;31567;54.600;9.842;2023-05-07T15:08:26;18.40;88.80
45849;DHT22;31567;54.600;9.842;2023-05-07T15:12:06;18.40;88.40
45849;DHT22;31567;54.600;9.842;2023-05-07T15:15:45;18.20;88.40
45849;DHT22;31567;54.600;9.842;2023-05-07T15:19:25;18.10;87.80
45849;DHT22;31567;54.600;9.842;2023-05-07T15:23:08;18.20;87.90
45849;DHT22;31567;54.600;9.842;2023-05-07T15:26:52;18.20;88.10
45849;DHT22;31567;54.600;9.842;2023-05-07T15:30:32;18.10;87.80
45849;DHT22;31567;54.600;9.842;2023-05-07T15:34:12;18.10;88.00
45849;DHT22;31567;54.600;9.842;2023-05-07T15:37:54;18.10;87.80
45849;DHT22;31567;54.600;9.842;2023-05-07T15:41:33;18.10;88.10
45849;DHT22;31567;54.600;9.842;2023-05-07T15:45:13;18.20;88.00
45849;DHT22;31567;54.600;9.842;2023-05-07T15:48:53;18.10;87.20
45849;DHT22;31567;54.600;9.842;2023-05-07T15:52:33;18.10;87.30
45849;DHT22;31567;54.600;9.842;2023-05-07T15:56:12;18.10;87.40
45849;DHT22;31567;54.600;9.842;2023-05-07T15:59:52;18.00;86.90
45849;DHT22;31567;54.600;9.842;2023-05-07T16:03:31;18.00;86.50
45849;DHT22;31567;54.600;9.842;2023-05-07T16:07:11;18.00;86.30
45849;DHT22;31567;54.600;9.842;2023-05-07T16:10:51;18.10;87.50
45849;DHT22;31567;54.600;9.842;2023-05-07T16:14:31;18.10;86.50
45849;DHT22;31567;54.600;9.842;2023-05-07T16:18:11;18.00;85.50
45849;DHT22;31567;54.600;9.842;2023-05-07T16:21:54;18.10;86.00
45849;DHT22;31567;54.600;9.842;2023-05-07T16:25:34;18.00;85.70
45849;DHT22;31567;54.600;9.842;2023-05-07T16:29:13;17.90;85.30
45849;DHT22;31567;54.600;9.842;2023-05-07T16:32:54;17.60;85.50
45849;DHT22;31567;54.600;9.842;2023-05-07T16:36:33;17.50;86.30
45849;DHT22;31567;54.600;9.842;2023-05-07T16:40:13;17.60;86.40
45849;DHT22;31567;54.600;9.842;2023-05-07T16:43:53;17.70;85.60
45849;DHT22;31567;54.600;9.842;2023-05-07T16:47:32;17.60;85.60
45849;DHT22;31567;54.600;9.842;2023-05-07T16:51:12;17.30;85.70
45849;DHT22;31567;54.600;9.842;2023-05-07T16:54:51;17.40;86.40
45849;DHT22;31567;54.600;9.842;2023-05-07T16:58:36;17.50;86.00
45849;DHT22;31567;54.600;9.842;2023-05-07T17:02:16;17.80;84.60
45849;DHT22;31567;54.600;9.842;2023-05-07T17:05:55;17.90;84.70
45849;DHT22;31567;54.600;9.842;2023-05-07T17:09:35;18.00;83.80
45849;DHT22;31567;54.600;9.842;2023-05-07T17:13:14;18.20;83.90
45849;DHT22;31567;54.600;9.842;2023-05-07T17:16:54;18.40;83.20
45849;DHT22;31567;54.600;9.842;2023-05-07T17:20:33;18.30;83.20
45849;DHT22;31567;54.600;9.842;2023-05-07T17:24:13;18.40;82.60
45849;DHT22;31567;54.600;9.842;2023-05-07T17:27:53;18.40;82.00
45849;DHT22;31567;54.600;9.842;2023-05-07T17:31:33;18.20;82.40
45849;DHT22;31567;54.600;9.842;2023-05-07T17:35:12;18.10;82.60
45849;DHT22;31567;54.600;9.842;2023-05-07T17:38:52;17.90;83.30
45849;DHT22;31567;54.600;9.842;2023-05-07T17:42:31;18.00;84.50
45849;DHT22;31567;54.600;9.842;2023-05-07T17:46:11;18.10;84.40
45849;DHT22;31567;54.600;9.842;2023-05-07T17:49:51;18.10;83.60
45849;DHT22;31567;54.600;9.842;2023-05-07T17:53:31;18.00;84.30
45849;DHT22;31567;54.600;9.842;2023-05-07T17:57:11;18.00;84.10
45849;DHT22;31567;54.600;9.842;2023-05-07T18:00:52;18.00;83.60
45849;DHT22;31567;54.600;9.842;2023-05-07T18:04:31;18.00;83.90
45849;DHT22;31567;54.600;9.842;2023-05-07T18:08:11;17.80;84.30
45849;DHT22;31567;54.600;9.842;2023-05-07T18:11:51;17.80;84.50
45849;DHT22;31567;54.600;9.842;2023-05-07T18:15:30;17.80;84.30
45849;DHT22;31567;54.600;9.842;2023-05-07T18:19:10;17.90;84.30
45849;DHT22;31567;54.600;9.842;2023-05-07T18:22:50;17.80;84.20
45849;DHT22;31567;54.600;9.842;2023-05-07T18:26:29;17.70;84.60
45849;DHT22;31567;54.600;9.842;2023-05-07T18:30:09;17.60;84.70
45849;DHT22;31567;54.600;9.842;2023-05-07T18:33:52;17.50;85.10
45849;DHT22;31567;54.600;9.842;2023-05-07T18:37:34;17.40;85.00
45849;DHT22;31567;54.600;9.842;2023-05-07T18:41:13;17.10;85.50
45849;DHT22;31567;54.600;9.842;2023-05-07T18:44:53;16.80;85.80
45849;DHT22;31567;54.600;9.842;2023-05-07T18:48:32;16.40;86.80
45849;DHT22;31567;54.600;9.842;2023-05-07T18:52:12;16.00;88.00
45849;DHT22;31567;54.600;9.842;2023-05-07T18:55:52;15.70;89.50
45849;DHT22;31567;54.600;9.842;2023-05-07T18:59:31;15.30;90.20
45849;DHT22;31567;54.600;9.842;2023-05-07T19:03:11;15.00;90.50
45849;DHT22;31567;54.600;9.842;2023-05-07T19:06:50;14.80;90.80
45849;DHT22;31567;54.600;9.842;2023-05-07T19:10:30;14.60;91.20
45849;DHT22;31567;54.600;9.842;2023-05-07T19:14:10;14.50;91.60
45849;DHT22;31567;54.600;9.842;2023-05-07T19:17:49;14.30;92.00
45849;DHT22;31567;54.600;9.842;2023-05-07T19:21:29;14.20;92.20
45849;DHT22;31567;54.600;9.842;2023-05-07T19:25:09;14.10;92.40
45849;DHT22;31567;54.600;9.842;2023-05-07T19:28:49;13.90;92.70
45849;DHT22;31567;54.600;9.842;2023-05-07T19:32:30;13.80;92.80
45849;DHT22;31567;54.600;9.842;2023-05-07T19:36:09;13.70;93.10
45849;DHT22;31567;54.600;9.842;2023-05-07T19:39:49;13.70;93.40
45849;DHT22;31567;54.600;9.842;2023-05-07T19:43:30;13.60;93.70
45849;DHT22;31567;54.600;9.842;2023-05-07T19:47:14;13.50;94.00
45849;DHT22;31567;54.600;9.842;2023-05-07T19:50:54;13.40;94.10
45849;DHT22;31567;54.600;9.842;2023-05-07T19:54:34;13.30;94.40
45849;DHT22;31567;54.600;9.842;2023-05-07T19:58:14;13.30;94.50
45849;DHT22;31567;54.600;9.842;2023-05-07T20:01:55;13.20;94.80
45849;DHT22;31567;54.600;9.842;2023-05-07T20:05:34;13.20;95.10
45849;DHT22;31567;54.600;9.842;2023-05-07T20:09:14;13.10;95.30
45849;DHT22;31567;54.600;9.842;2023-05-07T20:12:53;13.10;95.40
45849;DHT22;31567;54.600;9.842;2023-05-07T20:16:33;13.00;95.60
45849;DHT22;31567;54.600;9.842;2023-05-07T20:20:12;13.00;95.70
45849;DHT22;31567;54.600;9.842;2023-05-07T20:23:52;12.90;95.80
45849;DHT22;31567;54.600;9.842;2023-05-07T20:27:32;12.90;95.90
45849;DHT22;31567;54.600;9.842;2023-05-07T20:31:13;12.90;96.00
45849;DHT22;31567;54.600;9.842;2023-05-07T20:34:54;12.80;96.00
45849;DHT22;31567;54.600;9.842;2023-05-07T20:38:34;12.80;96.20
45849;DHT22;31567;54.600;9.842;2023-05-07T20:42:13;12.70;96.30
45849;DHT22;31567;54.600;9.842;2023-05-07T20:45:59;12.70;96.50
45849;DHT22;31567;54.600;9.842;2023-05-07T20:49:42;12.70;96.50
45849;DHT22;31567;54.600;9.842;2023-05-07T20:53:22;12.60;96.50
45849;DHT22;31567;54.600;9.842;2023-05-07T20:57:01;12.60;96.70
45849;DHT22;31567;54.600;9.842;2023-05-07T21:00:41;12.50;96.80
45849;DHT22;31567;54.600;9.842;2023-05-07T21:04:20;12.50;97.00
45849;DHT22;31567;54.600;9.842;2023-05-07T21:08:00;12.50;97.20
45849;DHT22;31567;54.600;9.842;2023-05-07T21:11:39;12.50;97.30
45849;DHT22;31567;54.600;9.842;2023-05-07T21:15:19;12.50;97.40
45849;DHT22;31567;54.600;9.842;2023-05-07T21:18:58;12.40;97.70
45849;DHT22;31567;54.600;9.842;2023-05-07T21:22:38;12.50;97.50
45849;DHT22;31567;54.600;9.842;2023-05-07T21:26:18;12.40;97.50
45849;DHT22;31567;54.600;9.842;2023-05-07T21:29:57;12.40;97.50
45849;DHT22;31567;54.600;9.842;2023-05-07T21:33:43;12.30;97.60
45849;DHT22;31567;54.600;9.842;2023-05-07T21:37:22;12.30;97.80
45849;DHT22;31567;54.600;9.842;2023-05-07T21:41:02;12.30;97.90
45849;DHT22;31567;54.600;9.842;2023-05-07T21:44:41;12.30;97.80
45849;DHT22;31567;54.600;9.842;2023-05-07T21:48:21;12.30;97.90
45849;DHT22;31567;54.600;9.842;2023-05-07T21:52:00;12.20;98.00
45849;DHT22;31567;54.600;9.842;2023-05-07T21:55:40;12.20;98.10
45849;DHT22;31567;54.600;9.842;2023-05-07T21:59:20;12.20;98.10
45849;DHT22;31567;54.600;9.842;2023-05-07T22:02:59;12.10;98.20
45849;DHT22;31567;54.600;9.842;2023-05-07T22:06:39;12.10;98.30
45849;DHT22;31567;54.600;9.842;2023-05-07T22:10:18;12.10;98.40
45849;DHT22;31567;54.600;9.842;2023-05-07T22:14:00;12.00;98.40
45849;DHT22;31567;54.600;9.842;2023-05-07T22:17:40;12.10;98.50
45849;DHT22;31567;54.600;9.842;2023-05-07T22:21:19;12.00;98.60
45849;DHT22;31567;54.600;9.842;2023-05-07T22:24:59;12.00;98.70
45849;DHT22;31567;54.600;9.842;2023-05-07T22:28:39;12.00;98.70
45849;DHT22;31567;54.600;9.842;2023-05-07T22:32:18;11.90;98.70
45849;DHT22;31567;54.600;9.842;2023-05-07T22:35:58;11.90;98.60
45849;DHT22;31567;54.600;9.842;2023-05-07T22:39:37;11.90;98.60
45849;DHT22;31567;54.600;9.842;2023-05-07T22:43:18;11.80;98.60
45849;DHT22;31567;54.600;9.842;2023-05-07T22:46:58;11.80;98.70
45849;DHT22;31567;54.600;9.842;2023-05-07T22:50:38;11.70;98.80
45849;DHT22;31567;54.600;9.842;2023-05-07T22:54:17;11.70;98.80
45849;DHT22;31567;54.600;9.842;2023-05-07T22:57:57;11.60;98.80
45849;DHT22;31567;54.600;9.842;2023-05-07T23:01:37;11.60;98.90
45849;DHT22;31567;54.600;9.842;2023-05-07T23:05:16;11.70;99.00
45849;DHT22;31567;54.600;9.842;2023-05-07T23:08:56;11.60;99.10
45849;DHT22;31567;54.600;9.842;2023-05-07T23:12:35;11.60;99.20
45849;DHT22;31567;54.600;9.842;2023-05-07T23:16:15;11.60;99.30
45849;DHT22;31567;54.600;9.842;2023-05-07T23:19:54;11.50;99.40